createdAt,value
2023-05-21T00:03:36.695Z,1.17
2023-05-21T00:08:38.702Z,1.42
2023-05-21T00:13:40.751Z,1.02
2023-05-21T00:18:43.014Z,1.10
2023-05-21T00:23:45.781Z,1.15
2023-05-21T00:28:48.230Z,1.10
2023-05-21T00:33:50.198Z,1.08
2023-05-21T00:38:52.507Z,0.90
2023-05-21T00:43:54.632Z,1.00
2023-05-21T00:48:58.451Z,1.77
2023-05-21T00:54:01.446Z,1.30
2023-05-21T00:59:05.963Z,0.73
2023-05-21T01:04:08.095Z,1.00
2023-05-21T01:09:10.270Z,1.20
2023-05-21T01:14:15.242Z,1.35
2023-05-21T01:19:24.831Z,1.15
2023-05-21T01:24:26.912Z,1.33
2023-05-21T01:29:29.337Z,0.90
2023-05-21T01:34:40.563Z,1.25
2023-05-21T01:39:48.169Z,0.80
2023-05-21T01:44:55.472Z,0.90
2023-05-21T01:49:57.850Z,0.80
2023-05-21T01:55:00.860Z,1.30
2023-05-21T02:00:02.917Z,0.95
2023-05-21T02:05:05.486Z,1.00
2023-05-21T02:10:08.307Z,0.88
2023-05-21T02:15:10.489Z,1.30
2023-05-21T02:20:13.316Z,1.05
2023-05-21T02:25:18.649Z,1.25
2023-05-21T02:30:21.174Z,1.23
2023-05-21T02:35:23.229Z,1.08
2023-05-21T02:40:25.732Z,0.90
2023-05-21T02:45:29.205Z,1.05
2023-05-21T02:50:31.455Z,0.98
2023-05-21T02:55:33.851Z,0.98
2023-05-21T03:00:35.939Z,0.93
2023-05-21T03:05:37.966Z,1.10
2023-05-21T03:10:40.395Z,0.80
2023-05-21T03:15:44.345Z,1.20
2023-05-21T03:20:46.549Z,1.10
2023-05-21T03:25:48.990Z,1.08
2023-05-21T03:30:51.512Z,1.23
2023-05-21T03:35:53.704Z,1.00
2023-05-21T03:40:55.782Z,1.25
2023-05-21T03:45:58.099Z,0.88
2023-05-21T03:51:00.349Z,0.90
2023-05-21T03:56:02.400Z,0.95
2023-05-21T04:01:05.149Z,1.08
2023-05-21T04:06:10.654Z,1.05
2023-05-21T04:11:13.015Z,0.93
2023-05-21T04:16:19.618Z,0.93
2023-05-21T04:21:22.192Z,0.90
2023-05-21T04:26:25.720Z,1.00
2023-05-21T04:31:27.984Z,1.00
2023-05-21T04:36:30.473Z,1.00
2023-05-21T04:41:34.995Z,0.85
2023-05-21T04:46:40.341Z,0.77
2023-05-21T04:51:43.670Z,0.90
2023-05-21T04:56:49.874Z,0.93
2023-05-21T05:01:52.982Z,0.82
2023-05-21T05:06:55.960Z,1.02
2023-05-21T05:11:58.027Z,0.90
2023-05-21T05:17:02.880Z,0.77
2023-05-21T05:22:06.233Z,0.80
2023-05-21T05:27:12.629Z,0.77
2023-05-21T05:32:15.732Z,0.93
2023-05-21T05:37:17.694Z,0.95
2023-05-21T05:42:24.419Z,0.75
2023-05-21T05:47:26.829Z,0.93
2023-05-21T05:52:29.060Z,0.88
2023-05-21T05:57:33.167Z,0.90
2023-05-21T06:02:44.455Z,0.80
2023-05-21T06:07:47.594Z,0.95
2023-05-21T06:12:50.553Z,0.90
2023-05-21T06:17:54.189Z,0.55
2023-05-21T06:22:56.350Z,0.80
2023-05-21T06:28:02.947Z,0.88
2023-05-21T06:33:12.005Z,0.75
2023-05-21T06:38:14.272Z,0.73
2023-05-21T06:43:16.503Z,1.00
2023-05-21T06:48:19.069Z,0.70
2023-05-21T06:53:20.935Z,1.05
2023-05-21T06:58:23.902Z,0.77
2023-05-21T07:03:26.970Z,0.80
2023-05-21T07:08:30.727Z,1.13
2023-05-21T07:13:33.164Z,0.68
2023-05-21T07:18:35.213Z,1.00
2023-05-21T07:23:40.815Z,1.02
2023-05-21T07:28:43.205Z,0.70
2023-05-21T07:33:45.534Z,0.93
2023-05-21T07:38:48.911Z,1.13
2023-05-21T07:43:52.593Z,1.17
2023-05-21T07:48:55.372Z,0.95
2023-05-21T07:53:59.320Z,0.98
2023-05-21T07:59:03.306Z,1.50
2023-05-21T08:04:08.572Z,2.50
2023-05-21T08:09:11.868Z,2.20
2023-05-21T08:14:20.038Z,2.95
2023-05-21T08:19:24.794Z,3.05
2023-05-21T08:24:26.933Z,3.22
2023-05-21T08:29:30.386Z,3.60
2023-05-21T08:34:34.758Z,3.03
2023-05-21T08:39:37.167Z,2.80
2023-05-21T08:44:45.090Z,2.42
2023-05-21T08:49:49.591Z,2.28
2023-05-21T08:54:52.742Z,2.67
2023-05-21T08:59:55.819Z,2.72
2023-05-21T09:05:01.220Z,3.45
2023-05-21T09:10:16.764Z,3.97
2023-05-21T09:15:19.491Z,3.35
2023-05-21T09:25:48.105Z,3.42
2023-05-21T09:30:55.512Z,3.13
2023-05-21T09:36:00.641Z,3.58
2023-05-21T09:41:08.747Z,2.78
2023-05-21T09:46:13.106Z,2.92
2023-05-21T09:51:31.508Z,3.97
2023-05-21T09:56:36.680Z,4.78
2023-05-21T10:01:42.455Z,3.45
2023-05-21T10:06:49.991Z,4.18
2023-05-21T10:12:03.884Z,4.28
2023-05-21T10:17:14.112Z,4.95
2023-05-21T10:22:24.780Z,4.95
2023-05-21T10:27:32.495Z,6.07
2023-05-21T10:32:37.163Z,4.88
2023-05-21T10:37:45.170Z,3.85
2023-05-21T10:43:31.300Z,4.07
2023-05-21T10:48:58.996Z,4.85
2023-05-21T10:54:56.309Z,4.97
2023-05-21T11:00:00.793Z,4.90
2023-05-21T11:10:42.681Z,5.13
2023-05-21T11:16:08.138Z,4.57
2023-05-21T11:21:15.637Z,4.60
2023-05-21T11:26:25.460Z,4.95
2023-05-21T11:31:43.221Z,6.32
2023-05-21T11:36:47.297Z,5.47
2023-05-21T11:42:06.428Z,4.93
2023-05-21T11:47:33.523Z,4.85
2023-05-21T11:52:39.785Z,4.60
2023-05-21T12:08:58.661Z,5.70
2023-05-21T12:14:05.726Z,6.78
2023-05-21T12:19:15.458Z,5.38
2023-05-21T12:24:25.069Z,6.32
2023-05-21T12:29:44.344Z,7.15
2023-05-21T12:34:54.972Z,6.30
2023-05-21T12:40:06.826Z,5.53
2023-05-21T12:45:15.596Z,5.40
2023-05-21T12:55:49.620Z,4.85
2023-05-21T13:00:57.943Z,4.60
2023-05-21T13:06:07.344Z,6.30
2023-05-21T13:11:10.948Z,5.00
2023-05-21T13:21:47.864Z,5.55
2023-05-21T13:27:01.839Z,5.07
2023-05-21T13:32:11.396Z,4.82
2023-05-21T13:37:14.966Z,5.50
2023-05-21T13:42:17.253Z,4.13
2023-05-21T13:47:36.845Z,5.97
2023-05-21T13:52:50.532Z,6.32
2023-05-21T13:57:52.726Z,5.97
2023-05-21T14:02:55.285Z,6.07
2023-05-21T14:08:04.545Z,6.90
2023-05-21T14:13:19.057Z,6.40
2023-05-21T14:18:22.480Z,4.90
2023-05-21T14:23:38.884Z,5.22
2023-05-21T14:28:41.553Z,4.20
2023-05-21T14:33:46.065Z,4.40
2023-05-21T14:38:53.468Z,4.72
2023-05-21T14:44:00.150Z,4.70
2023-05-21T14:49:05.726Z,4.55
2023-05-21T14:54:12.069Z,4.28
2023-05-21T14:59:22.036Z,5.07
2023-05-21T15:04:24.695Z,4.85
2023-05-21T15:09:29.164Z,5.07
2023-05-21T15:14:41.602Z,4.47
2023-05-21T15:19:44.035Z,5.13
2023-05-21T15:24:47.824Z,5.13
2023-05-21T15:29:52.014Z,4.70
2023-05-21T15:34:56.665Z,5.13
2023-05-21T15:39:59.306Z,5.45
2023-05-21T15:45:01.600Z,5.22
2023-05-21T15:50:05.093Z,4.75
2023-05-21T15:55:07.503Z,4.50
2023-05-21T16:00:10.840Z,5.63
2023-05-21T16:05:13.052Z,4.97
2023-05-21T16:10:16.286Z,4.90
2023-05-21T16:15:19.990Z,5.30
2023-05-21T16:20:23.553Z,5.25
2023-05-21T16:25:25.977Z,5.43
2023-05-21T16:30:28.370Z,5.07
2023-05-21T16:35:32.381Z,5.80
2023-05-21T16:40:34.494Z,5.32
2023-05-21T16:45:43.981Z,5.93
2023-05-21T16:50:47.618Z,5.47
2023-05-21T16:55:49.858Z,5.47
2023-05-21T17:00:51.998Z,5.75
2023-05-21T17:05:55.924Z,6.57
2023-05-21T17:10:59.692Z,5.18
2023-05-21T17:16:03.829Z,4.97
2023-05-21T17:21:06.128Z,5.47
2023-05-21T17:26:23.026Z,5.10
2023-05-21T17:31:25.609Z,5.55
2023-05-21T17:36:32.598Z,4.90
2023-05-21T17:41:42.109Z,4.70
2023-05-21T17:46:47.778Z,5.15
2023-05-21T17:51:55.547Z,3.75
2023-05-21T17:56:58.168Z,4.75
2023-05-21T18:02:02.240Z,4.43
2023-05-21T18:07:04.807Z,4.70
2023-05-21T18:12:10.600Z,4.97
2023-05-21T18:17:13.906Z,4.30
2023-05-21T18:22:20.247Z,4.80
2023-05-21T18:27:24.483Z,4.82
2023-05-21T18:32:27.211Z,5.65
2023-05-21T18:37:37.995Z,5.32
2023-05-21T18:42:47.379Z,4.75
2023-05-21T18:47:50.303Z,4.95
2023-05-21T18:53:06.839Z,4.97
2023-05-21T18:58:10.992Z,5.25
2023-05-21T19:03:13.334Z,4.72
2023-05-21T19:08:17.620Z,4.15
2023-05-21T19:13:20.123Z,4.45
2023-05-21T19:18:26.690Z,4.43
2023-05-21T19:23:29.535Z,5.10
2023-05-21T19:28:34.771Z,5.40
2023-05-21T19:33:37.058Z,4.68
2023-05-21T19:38:41.594Z,4.30
2023-05-21T19:43:46.166Z,4.32
2023-05-21T19:48:51.178Z,4.07
2023-05-21T19:53:53.980Z,4.18
2023-05-21T19:58:56.945Z,4.35
2023-05-21T20:04:01.107Z,4.40
2023-05-21T20:09:05.366Z,3.80
2023-05-21T20:14:07.733Z,3.72
2023-05-21T20:19:11.169Z,3.70
2023-05-21T20:24:13.918Z,3.83
2023-05-21T20:29:16.507Z,3.92
2023-05-21T20:34:22.045Z,3.60
2023-05-21T20:39:29.861Z,3.45
2023-05-21T20:44:34.569Z,4.40
2023-05-21T20:49:42.828Z,4.03
2023-05-21T20:54:47.164Z,4.95
2023-05-21T20:59:53.585Z,4.72
2023-05-21T21:04:57.123Z,4.32
2023-05-21T21:10:00.599Z,4.38
2023-05-21T21:15:04.298Z,4.18
2023-05-21T21:20:07.960Z,4.50
2023-05-21T21:25:11.929Z,4.15
2023-05-21T21:30:14.484Z,4.53
2023-05-21T21:35:17.642Z,4.55
2023-05-21T21:40:19.917Z,3.67
2023-05-21T21:45:22.611Z,4.03
2023-05-21T21:50:25.192Z,3.50
2023-05-21T21:55:27.804Z,3.92
2023-05-21T22:00:30.048Z,4.22
2023-05-21T22:05:33.012Z,3.65
2023-05-21T22:10:38.570Z,3.90
2023-05-21T22:15:41.137Z,3.30
2023-05-21T22:20:44.480Z,3.72
2023-05-21T22:25:48.540Z,3.17
2023-05-21T22:30:50.607Z,3.80
2023-05-21T22:35:55.660Z,4.25
2023-05-21T22:40:59.392Z,3.70
2023-05-21T22:46:02.295Z,3.38
2023-05-21T22:51:05.118Z,4.35
2023-05-21T22:56:07.974Z,3.22
2023-05-21T23:01:09.952Z,4.00
2023-05-21T23:06:12.502Z,3.05
2023-05-21T23:11:16.188Z,3.88
2023-05-21T23:16:23.888Z,3.65
2023-05-21T23:21:30.582Z,3.53
2023-05-21T23:26:32.907Z,4.57
2023-05-21T23:31:36.457Z,3.42
2023-05-21T23:36:38.978Z,3.28
2023-05-21T23:41:42.444Z,3.30
2023-05-21T23:46:45.967Z,3.45
2023-05-21T23:51:51.091Z,3.45
2023-05-21T23:56:53.466Z,3.58
